Time;durP1;ratioP1;P1;durP2;ratioP2;P2;SDS_P1;SDS_P2;PMS_P1;PMS_P2;Temp;Humidity;BMP_temperature;BMP_pressure;BME280_temperature;BME280_humidity;BME280_pressure;Samples;Min_cycle;Max_cycle;Signal;HPM_P1;HPM_P2
2022/05/31 00:05:41;;;;;;;1.83;1.02;;;10.70;99.90;;;;;;20632234;28;20038;-40
2022/05/31 00:15:42;;;;;;;1.95;0.90;;;10.70;99.90;;;;;;20638240;28;20521;-40
2022/05/31 00:25:43;;;;;;;1.52;0.73;;;10.70;99.90;;;;;;20714588;28;20052;-40
2022/05/31 00:35:48;;;;;;;4.30;0.93;;;10.70;99.90;;;;;;20715263;28;20437;-40
2022/05/31 00:45:57;;;;;;;1.55;0.85;;;10.60;99.90;;;;;;20715589;28;20071;-40
2022/05/31 00:56:04;;;;;;;2.67;0.80;;;10.50;99.90;;;;;;20723666;28;20053;-41
2022/05/31 01:06:06;;;;;;;1.53;0.90;;;10.40;99.90;;;;;;20642577;28;20050;-40
2022/05/31 01:16:10;;;;;;;2.80;0.73;;;10.40;99.90;;;;;;20643012;28;20433;-40
2022/05/31 01:26:15;;;;;;;1.58;0.73;;;10.30;99.90;;;;;;20629803;28;20042;-40
2022/05/31 01:36:22;;;;;;;2.53;1.00;;;10.20;99.90;;;;;;20636508;28;20057;-40
2022/05/31 01:46:27;;;;;;;1.73;0.65;;;10.10;99.90;;;;;;20647896;28;20068;-40
2022/05/31 01:56:31;;;;;;;;;;;10.10;99.90;;;;;;20737825;28;20049;-40
2022/05/31 02:06:35;;;;;;;1.27;0.80;;;10.00;99.90;;;;;;20727377;28;20381;-40
2022/05/31 02:16:36;;;;;;;1.73;0.85;;;9.90;99.90;;;;;;20748402;28;20052;-40
2022/05/31 02:26:41;;;;;;;1.73;0.70;;;9.80;99.90;;;;;;20758350;28;20041;-40
2022/05/31 02:36:43;;;;;;;1.38;0.73;;;9.80;99.90;;;;;;20728569;28;20057;-40
2022/05/31 02:46:44;;;;;;;1.70;0.60;;;9.80;99.90;;;;;;20655247;28;20072;-40
2022/05/31 02:56:48;;;;;;;1.05;0.50;;;9.90;99.90;;;;;;20670498;28;20510;-40
2022/05/31 03:06:49;;;;;;;1.50;0.50;;;9.90;99.90;;;;;;20662182;28;20397;-40
2022/05/31 03:17:00;;;;;;;1.38;0.60;;;9.90;99.90;;;;;;20715938;28;20050;-40
2022/05/31 03:27:05;;;;;;;2.22;0.77;;;10.00;99.90;;;;;;20739293;28;20034;-40
2022/05/31 03:37:06;;;;;;;3.10;1.15;;;10.00;99.90;;;;;;20731402;28;20045;-41
2022/05/31 03:47:07;;;;;;;1.90;0.80;;;10.00;99.90;;;;;;20728894;28;20493;-40
2022/05/31 03:57:16;;;;;;;1.67;0.85;;;10.00;99.90;;;;;;20729667;28;21553;-40
2022/05/31 04:07:17;;;;;;;2.42;0.80;;;10.00;99.90;;;;;;20733071;28;20046;-40
2022/05/31 04:17:18;;;;;;;1.80;0.82;;;10.10;99.90;;;;;;20727635;28;20049;-40
2022/05/31 04:27:21;;;;;;;1.98;0.95;;;10.00;99.90;;;;;;20745284;28;20057;-41
2022/05/31 04:37:22;;;;;;;4.97;1.25;;;10.10;99.90;;;;;;20654126;28;20378;-41
2022/05/31 04:47:23;;;;;;;4.05;1.05;;;10.20;99.90;;;;;;20638613;28;20042;-40
2022/05/31 04:57:25;;;;;;;1.73;1.02;;;10.30;99.90;;;;;;20691170;28;20303;-40
2022/05/31 05:07:29;;;;;;;1.40;0.63;;;10.40;99.90;;;;;;20726103;28;20382;-40
2022/05/31 05:17:30;;;;;;;2.72;1.00;;;10.50;99.90;;;;;;20726182;28;20402;-41
2022/05/31 05:27:31;;;;;;;1.33;0.70;;;10.60;99.90;;;;;;20730304;28;20045;-40
2022/05/31 05:37:32;;;;;;;5.28;0.95;;;10.70;99.90;;;;;;20729556;28;20041;-41
2022/05/31 05:47:33;;;;;;;1.77;0.68;;;10.80;99.90;;;;;;20719699;28;20049;-41
2022/05/31 05:57:35;;;;;;;1.60;0.60;;;10.90;99.90;;;;;;20728264;28;20042;-41
2022/05/31 06:07:51;;;;;;;2.55;1.10;;;11.40;99.90;;;;;;20719024;28;20050;-40
2022/05/31 06:17:55;;;;;;;1.88;0.77;;;11.90;99.90;;;;;;20711488;28;21317;-40
2022/05/31 06:27:56;;;;;;;2.13;0.88;;;12.40;99.90;;;;;;20718531;28;20057;-40
2022/05/31 06:37:57;;;;;;;2.10;1.20;;;12.80;99.90;;;;;;20720686;28;20804;-40
2022/05/31 06:47:59;;;;;;;2.83;0.93;;;13.20;99.90;;;;;;20711707;28;20041;-40
2022/05/31 06:58:00;;;;;;;1.95;1.08;;;13.60;99.90;;;;;;20712488;28;20045;-40
2022/05/31 07:08:01;;;;;;;2.20;1.08;;;13.90;99.90;;;;;;20721006;28;20685;-40
2022/05/31 07:18:07;;;;;;;2.22;0.70;;;14.20;99.90;;;;;;20726876;28;20084;-40
2022/05/31 07:28:08;;;;;;;1.40;0.63;;;14.60;99.90;;;;;;20701058;28;21387;-41
2022/05/31 07:38:10;;;;;;;1.63;0.90;;;15.00;99.90;;;;;;20714986;28;20031;-41
2022/05/31 07:48:12;;;;;;;1.98;0.88;;;15.00;99.90;;;;;;20637194;28;20549;-40
2022/05/31 07:58:31;;;;;;;2.15;1.08;;;15.00;99.90;;;;;;20639400;28;20046;-41
2022/05/31 08:08:33;;;;;;;1.42;0.52;;;15.40;99.90;;;;;;20637297;28;20494;-40
2022/05/31 08:18:38;;;;;;;3.08;0.60;;;15.70;99.90;;;;;;20641189;28;20053;-40
2022/05/31 08:28:39;;;;;;;3.72;1.48;;;15.80;99.90;;;;;;20656474;28;20490;-40
2022/05/31 08:38:42;;;;;;;3.17;0.85;;;16.30;99.90;;;;;;20710522;28;20057;-40
2022/05/31 08:49:09;;;;;;;2.28;0.98;;;16.40;99.90;;;;;;20701475;28;20045;-40
2022/05/31 08:59:30;;;;;;;2.20;0.90;;;16.50;99.90;;;;;;20712922;28;20484;-40
2022/05/31 09:09:52;;;;;;;4.47;2.08;;;16.30;99.90;;;;;;20714166;28;20477;-40
2022/05/31 09:20:04;;;;;;;2.20;1.38;;;16.60;99.90;;;;;;20632338;28;21526;-40
2022/05/31 09:30:15;;;;;;;2.50;1.70;;;17.10;99.90;;;;;;20628193;28;20750;-40
2022/05/31 09:40:32;;;;;;;1.77;1.17;;;17.30;99.90;;;;;;20628620;28;20519;-40
2022/05/31 09:50:33;;;;;;;1.52;0.75;;;17.60;99.90;;;;;;20661493;28;21443;-40
2022/05/31 10:00:37;;;;;;;2.33;1.27;;;17.70;98.40;;;;;;20693347;28;20049;-40
2022/05/31 10:10:46;;;;;;;2.05;0.90;;;17.50;99.20;;;;;;20627865;28;20046;-40
2022/05/31 10:21:07;;;;;;;2.05;1.30;;;17.70;99.10;;;;;;20656996;28;20504;-40
2022/05/31 10:31:20;;;;;;;1.98;1.10;;;17.50;98.80;;;;;;20719717;28;21624;-40
2022/05/31 10:41:29;;;;;;;3.42;1.27;;;17.50;99.50;;;;;;20717197;28;20266;-40
2022/05/31 10:51:50;;;;;;;2.33;0.85;;;17.50;98.90;;;;;;20717878;28;20537;-40
2022/05/31 11:02:29;;;;;;;2.35;1.45;;;17.50;99.90;;;;;;20723413;28;21515;-40
2022/05/31 11:12:40;;;;;;;1.70;0.93;;;18.10;99.70;;;;;;20689405;28;20064;-40
2022/05/31 11:23:07;;;;;;;1.40;0.60;;;17.80;99.90;;;;;;20721087;28;21358;-40
2022/05/31 11:33:23;;;;;;;5.13;0.83;;;17.20;99.90;;;;;;20709727;28;20034;-40
2022/05/31 11:43:43;;;;;;;1.67;0.93;;;16.80;99.90;;;;;;20721444;28;20539;-40
2022/05/31 11:54:14;;;;;;;3.42;1.25;;;16.90;99.80;;;;;;20678497;28;20722;-40
2022/05/31 12:04:23;;;;;;;1.85;0.77;;;17.70;99.90;;;;;;20648976;28;20307;-40
2022/05/31 12:14:25;;;;;;;2.10;1.00;;;18.20;99.90;;;;;;20646460;28;20517;-40
2022/05/31 12:24:40;;;;;;;1.88;0.68;;;18.20;99.90;;;;;;20661467;28;20046;-40
2022/05/31 12:34:41;;;;;;;1.27;0.82;;;17.60;99.90;;;;;;20640173;28;20110;-41
2022/05/31 12:44:47;;;;;;;3.60;1.50;;;17.10;99.90;;;;;;20645754;28;20046;-40
2022/05/31 12:54:53;;;;;;;1.38;0.70;;;16.90;99.90;;;;;;20640546;28;20049;-40
2022/05/31 13:04:58;;;;;;;2.50;1.70;;;16.60;99.90;;;;;;20644361;28;20057;-40
2022/05/31 13:26:01;;;;;;;2.92;1.00;;;16.40;99.90;;;;;;20636153;28;20057;-40
2022/05/31 13:36:31;;;;;;;2.28;1.27;;;16.40;99.90;;;;;;20638835;28;20045;-40
2022/05/31 13:46:45;;;;;;;2.22;1.40;;;16.40;99.90;;;;;;20630649;28;20538;-40
2022/05/31 13:56:49;;;;;;;2.53;0.90;;;16.10;99.90;;;;;;20629803;28;20618;-40
2022/05/31 14:06:51;;;;;;;3.45;1.40;;;15.80;99.90;;;;;;20647660;28;20406;-40
2022/05/31 14:16:57;;;;;;;1.83;0.95;;;15.70;99.90;;;;;;20656548;28;20046;-40
2022/05/31 14:27:03;;;;;;;2.35;1.17;;;15.00;99.90;;;;;;20645220;28;20559;-41
2022/05/31 14:37:06;;;;;;;2.50;1.52;;;14.10;99.90;;;;;;20646580;28;20046;-40
2022/05/31 14:47:24;;;;;;;4.68;1.90;;;13.80;99.90;;;;;;20644078;28;20100;-40
2022/05/31 14:58:36;;;;;;;3.08;1.50;;;13.70;99.90;;;;;;20646885;28;20547;-41
2022/05/31 15:07:51;;;;;;;3.22;1.65;;;13.80;99.90;;;;;;20644815;28;20042;-40
2022/05/31 15:28:12;;;;;;;3.03;1.38;;;14.10;99.90;;;;;;20638807;28;20130;-41
2022/05/31 15:38:21;;;;;;;4.00;1.88;;;14.00;99.90;;;;;;20642999;28;20038;-41
2022/05/31 15:48:27;;;;;;;2.42;1.27;;;14.10;99.90;;;;;;20643391;28;20232;-41
2022/05/31 15:58:30;;;;;;;;;;;14.30;99.90;;;;;;20645007;28;20351;-41
2022/05/31 16:08:31;;;;;;;1.75;0.90;;;14.60;99.90;;;;;;20648024;28;19936;-41
2022/05/31 16:18:32;;;;;;;2.50;1.02;;;14.80;99.90;;;;;;20661217;28;20045;-41
2022/05/31 16:28:33;;;;;;;1.35;0.70;;;14.90;99.90;;;;;;20718675;28;20447;-41
2022/05/31 16:49:01;;;;;;;1.40;1.00;;;14.90;99.90;;;;;;20659740;28;20221;-41
2022/05/31 16:59:02;;;;;;;1.40;0.57;;;14.80;99.90;;;;;;20620995;28;22186;-41
2022/05/31 17:19:26;;;;;;;1.38;0.70;;;14.70;99.90;;;;;;20620284;28;20042;-40
2022/05/31 17:29:28;;;;;;;1.15;0.57;;;14.40;99.90;;;;;;20660222;28;20057;-41
2022/05/31 17:39:29;;;;;;;2.42;0.80;;;13.90;99.90;;;;;;20632961;28;20046;-41
2022/05/31 17:49:30;;;;;;;2.63;1.10;;;13.60;99.90;;;;;;20613805;28;20057;-40
2022/05/31 17:59:32;;;;;;;2.17;1.23;;;13.40;99.90;;;;;;20620381;28;20405;-41
2022/05/31 18:09:41;;;;;;;1.60;1.00;;;13.40;99.90;;;;;;20615657;28;20057;-41
2022/05/31 18:19:42;;;;;;;1.67;0.90;;;13.40;99.90;;;;;;20616315;28;20042;-41
2022/05/31 18:29:49;;;;;;;3.03;0.90;;;13.40;99.90;;;;;;20615835;28;20374;-41
2022/05/31 18:49:51;;;;;;;2.58;1.10;;;13.50;99.90;;;;;;20641244;28;20050;-41
2022/05/31 18:59:56;;;;;;;1.83;0.88;;;13.50;99.90;;;;;;20649289;28;20042;-41
2022/05/31 19:09:57;;;;;;;2.22;1.40;;;13.50;99.90;;;;;;20708137;28;20049;-41
2022/05/31 19:20:00;;;;;;;2.88;1.52;;;13.50;99.90;;;;;;20703885;28;20076;-41
2022/05/31 19:30:01;;;;;;;2.15;1.20;;;13.50;99.90;;;;;;20671795;28;20073;-41
2022/05/31 19:40:04;;;;;;;3.28;1.35;;;13.50;99.90;;;;;;20713475;28;20038;-41
2022/05/31 19:50:06;;;;;;;2.47;1.02;;;13.10;99.90;;;;;;20685316;28;20049;-41
2022/05/31 20:00:10;;;;;;;1.45;0.80;;;12.40;99.90;;;;;;20723068;28;20064;-40
2022/05/31 20:10:17;;;;;;;1.90;0.90;;;12.10;99.90;;;;;;20616445;28;20069;-40
2022/05/31 20:20:18;;;;;;;2.25;1.30;;;11.90;99.90;;;;;;20642892;28;20777;-40
2022/05/31 20:30:19;;;;;;;3.25;1.67;;;12.00;99.90;;;;;;20686967;28;20317;-41
2022/05/31 20:40:21;;;;;;;6.25;1.80;;;12.00;99.90;;;;;;20648906;28;20665;-41
2022/05/31 20:50:22;;;;;;;4.05;2.13;;;11.90;99.90;;;;;;20622183;28;20049;-41
2022/05/31 21:00:27;;;;;;;3.15;1.50;;;11.90;99.90;;;;;;20699168;28;20045;-40
2022/05/31 21:10:38;;;;;;;2.15;1.40;;;11.90;99.90;;;;;;20690465;28;20049;-40
2022/05/31 21:20:42;;;;;;;3.85;1.85;;;11.90;99.90;;;;;;20703328;28;20318;-40
2022/05/31 21:30:43;;;;;;;2.78;1.80;;;11.90;99.90;;;;;;20643936;28;20038;-50
2022/05/31 21:51:06;;;;;;;2.60;1.58;;;11.90;99.90;;;;;;20703353;28;20536;-40
2022/05/31 22:01:12;;;;;;;3.60;1.83;;;11.80;99.90;;;;;;20687044;28;20277;-40
2022/05/31 22:11:24;;;;;;;3.35;1.85;;;11.90;99.90;;;;;;20705898;28;20119;-41
2022/05/31 22:21:25;;;;;;;5.78;2.50;;;11.90;99.90;;;;;;20690609;28;20122;-41
2022/05/31 22:31:30;;;;;;;4.88;2.85;;;11.80;99.90;;;;;;20708725;28;20037;-41
2022/05/31 22:41:36;;;;;;;5.85;2.22;;;11.80;99.90;;;;;;20678963;28;20049;-40
2022/05/31 22:51:38;;;;;;;14.80;2.80;;;11.80;99.90;;;;;;20694688;28;20045;-41
2022/05/31 23:01:39;;;;;;;6.00;3.05;;;11.90;99.90;;;;;;20698506;28;20058;-40
2022/05/31 23:11:40;;;;;;;5.65;3.20;;;11.90;99.90;;;;;;20700933;28;20653;-40
2022/05/31 23:21:50;;;;;;;5.20;3.13;;;11.80;99.90;;;;;;20688596;28;20360;-41
2022/05/31 23:31:55;;;;;;;8.65;4.30;;;11.80;99.90;;;;;;20711307;28;20431;-41
2022/05/31 23:42:00;;;;;;;4.38;3.38;;;11.70;99.90;;;;;;20690475;28;20486;-40
2022/05/31 23:52:05;;;;;;;7.78;3.85;;;11.60;99.90;;;;;;20690594;28;20190;-41
